Time;durP1;ratioP1;P1;durP2;ratioP2;P2;SDS_P1;SDS_P2;PMS_P1;PMS_P2;Temp;Humidity;BMP_temperature;BMP_pressure;BME280_temperature;BME280_humidity;BME280_pressure;Samples;Min_cycle;Max_cycle;Signal;HPM_P1;HPM_P2
2021/11/10 00:00:21;;;;;;;2.87;2.58;;;;;;;8.19;49.35;103591.48;1708038;83;21042;-55
2021/11/10 00:02:47;;;;;;;3.45;3.05;;;;;;;8.17;49.55;103595.34;1712025;83;21014;-52
2021/11/10 00:05:15;;;;;;;3.72;2.67;;;;;;;8.16;49.58;103603.94;1705015;83;21042;-50
2021/11/10 00:07:42;;;;;;;4.08;3.37;;;;;;;8.13;49.55;103605.15;1699832;83;21005;-50
2021/11/10 00:10:09;;;;;;;3.65;2.92;;;;;;;8.10;49.67;103606.33;1706023;83;20994;-53
2021/11/10 00:12:39;;;;;;;3.52;3.15;;;;;;;8.08;50.01;103613.17;1747092;81;21323;-52
2021/11/10 00:15:08;;;;;;;3.42;3.02;;;;;;;8.05;49.91;103606.61;1744772;82;21026;-52
2021/11/10 00:17:34;;;;;;;4.53;3.50;;;;;;;8.02;49.34;103596.52;1729711;81;21045;-52
2021/11/10 00:20:01;;;;;;;4.25;2.85;;;;;;;7.99;49.56;103603.81;1742468;81;21006;-50
2021/11/10 00:22:28;;;;;;;4.58;3.22;;;;;;;7.98;49.82;103610.21;1743153;82;21010;-52
2021/11/10 00:24:54;;;;;;;4.00;3.22;;;;;;;7.97;49.84;103605.47;1708802;83;21081;-52
2021/11/10 00:27:21;;;;;;;4.55;3.00;;;;;;;7.97;50.18;103608.47;1695976;83;21034;-54
2021/11/10 00:29:49;;;;;;;4.05;3.30;;;;;;;7.96;49.77;103608.88;1708902;83;20978;-52
2021/11/10 00:32:17;;;;;;;4.00;3.00;;;;;;;7.93;49.65;103608.75;1708576;83;21561;-53
2021/11/10 00:34:44;;;;;;;3.83;2.50;;;;;;;7.92;50.08;103618.67;1707357;83;21539;-52
2021/11/10 00:37:13;;;;;;;3.40;3.12;;;;;;;7.91;50.29;103622.08;1706148;83;21089;-51
2021/11/10 00:39:40;;;;;;;3.92;3.05;;;;;;;7.90;50.28;103617.73;1707726;83;21065;-54
2021/11/10 00:42:07;;;;;;;4.95;3.33;;;;;;;7.88;50.13;103615.91;1739486;82;21038;-56
2021/11/10 00:44:34;;;;;;;4.37;3.00;;;;;;;7.85;50.39;103619.28;1702984;83;21006;-52
2021/11/10 00:47:03;;;;;;;3.83;3.33;;;;;;;7.85;50.48;103621.88;1692359;84;21050;-52
2021/11/10 00:49:32;;;;;;;3.83;3.22;;;;;;;7.83;50.43;103624.82;1718736;81;21086;-56
2021/11/10 00:51:58;;;;;;;4.30;3.00;;;;;;;7.81;50.21;103629.08;1734926;81;20979;-52
2021/11/10 00:54:25;;;;;;;3.83;3.10;;;;;;;7.79;50.00;103633.32;1735457;82;21024;-53
2021/11/10 00:56:55;;;;;;;3.85;3.33;;;;;;;7.78;50.19;103642.35;1736781;81;21023;-51
2021/11/10 00:59:21;;;;;;;3.45;3.10;;;;;;;7.77;50.11;103642.75;1724286;81;21499;-51
2021/11/10 01:01:48;;;;;;;5.10;3.40;;;;;;;7.77;50.22;103648.38;1735509;81;21483;-55
2021/11/10 01:04:14;;;;;;;4.25;2.90;;;;;;;7.75;50.28;103645.70;1736593;81;21483;-51
2021/11/10 01:06:41;;;;;;;3.70;2.77;;;;;;;7.75;50.21;103657.37;1732312;82;21039;-52
2021/11/10 01:09:10;;;;;;;4.37;3.30;;;;;;;7.71;50.37;103655.50;1733646;81;21054;-54
2021/11/10 01:11:36;;;;;;;3.75;2.92;;;;;;;7.69;50.27;103658.45;1733676;81;20984;-51
2021/11/10 01:14:03;;;;;;;4.50;3.02;;;;;;;7.67;50.27;103657.52;1733470;81;21054;-52
2021/11/10 01:16:29;;;;;;;4.28;3.25;;;;;;;7.67;50.56;103667.88;1731683;81;21011;-53
2021/11/10 01:18:56;;;;;;;5.22;3.40;;;;;;;7.65;50.75;103660.47;1732001;82;21034;-50
2021/11/10 01:21:25;;;;;;;3.90;3.22;;;;;;;7.65;50.70;103678.61;1690997;84;21006;-52
2021/11/10 01:23:51;;;;;;;4.30;3.20;;;;;;;7.66;50.78;103682.09;1698497;84;21053;-52
2021/11/10 01:26:19;;;;;;;5.17;3.60;;;;;;;7.64;50.82;103680.75;1696300;84;21569;-52
2021/11/10 01:28:45;;;;;;;4.00;3.60;;;;;;;7.62;50.72;103681.10;1701032;84;21459;-52
2021/11/10 01:31:12;;;;;;;3.80;3.33;;;;;;;7.57;50.87;103683.92;1701133;84;21502;-51
2021/11/10 01:33:39;;;;;;;8.00;3.62;;;;;;;7.52;51.02;103682.89;1699396;84;21014;-52
2021/11/10 01:36:09;;;;;;;4.40;3.45;;;;;;;7.50;50.98;103682.36;1700297;84;21601;-52
2021/11/10 01:38:35;;;;;;;5.08;3.72;;;;;;;7.48;51.05;103695.23;1698013;84;21083;-51
2021/11/10 01:41:03;;;;;;;5.05;3.75;;;;;;;7.48;51.20;103706.03;1698168;84;21557;-51
2021/11/10 01:43:32;;;;;;;4.62;3.87;;;;;;;7.48;51.28;103709.48;1723421;81;21062;-50
2021/11/10 01:46:00;;;;;;;6.83;3.80;;;;;;;7.48;51.20;103712.06;1732791;81;21508;-54
2021/11/10 01:48:28;;;;;;;4.28;3.77;;;;;;;7.48;51.04;103717.25;1697653;84;21046;-56
2021/11/10 01:50:56;;;;;;;7.22;3.95;;;;;;;7.47;51.16;103720.68;1696839;84;20994;-51
2021/11/10 01:53:22;;;;;;;6.22;3.87;;;;;;;7.45;51.04;103719.74;1698151;84;21046;-56
2021/11/10 01:55:49;;;;;;;4.72;3.92;;;;;;;7.43;51.18;103718.80;1698185;84;21060;-52
2021/11/10 01:58:16;;;;;;;5.55;3.62;;;;;;;7.43;51.14;103723.98;1693698;84;21054;-52
2021/11/10 02:00:43;;;;;;;5.87;3.72;;;;;;;7.42;51.41;103731.27;1701742;84;20994;-53
2021/11/10 02:03:12;;;;;;;5.03;3.87;;;;;;;7.43;51.48;103733.45;1736354;81;21023;-50
2021/11/10 02:05:48;;;;;;;4.58;3.62;;;;;;;7.44;51.22;103729.62;1736588;81;21026;-52
2021/11/10 02:08:17;;;;;;;4.83;3.98;;;;;;;7.42;50.86;103727.38;1681750;84;21487;-54
2021/11/10 02:10:43;;;;;;;6.70;4.25;;;;;;;7.38;50.56;103739.75;1685884;85;21530;-50
2021/11/10 02:13:11;;;;;;;4.85;3.67;;;;;;;7.33;50.76;103739.59;1685591;85;21043;-52
2021/11/10 02:15:37;;;;;;;5.72;4.40;;;;;;;7.29;51.14;103745.45;1650242;87;21525;-52
2021/11/10 02:18:05;;;;;;;5.20;4.10;;;;;;;7.28;51.23;103741.11;1624698;88;21034;-55
2021/11/10 02:20:35;;;;;;;4.87;4.45;;;;;;;7.26;51.33;103745.75;1685991;85;21073;-51
2021/11/10 02:23:04;;;;;;;5.83;4.47;;;;;;;7.24;51.61;103752.58;1650200;87;21231;-52
2021/11/10 02:25:32;;;;;;;5.12;4.47;;;;;;;7.21;51.62;103753.34;1624869;88;21515;-56
2021/11/10 02:27:58;;;;;;;5.03;4.20;;;;;;;7.19;51.52;103761.89;1685935;85;21620;-50
2021/11/10 02:30:25;;;;;;;4.97;4.42;;;;;;;7.18;51.66;103770.47;1685735;85;21058;-52
2021/11/10 02:32:57;;;;;;;5.08;4.10;;;;;;;7.18;51.95;103768.77;1685788;85;21072;-52
2021/11/10 02:35:24;;;;;;;;;;;;;;;7.19;51.79;103769.66;1628198;88;21136;-52
2021/11/10 02:37:58;;;;;;;6.03;4.50;;;;;;;7.18;51.57;103771.36;1614004;88;20110;-53
2021/11/10 02:40:24;;;;;;;7.20;4.60;;;;;;;7.14;51.47;103765.98;1605743;89;21500;-50
2021/11/10 02:42:51;;;;;;;5.65;4.58;;;;;;;7.11;51.52;103768.47;1605691;89;21625;-50
2021/11/10 02:45:21;;;;;;;5.22;3.83;;;;;;;7.08;51.66;103773.52;1562721;92;21700;-52
2021/11/10 02:47:47;;;;;;;5.05;4.17;;;;;;;7.02;51.66;103769.38;1570937;91;21045;-53
2021/11/10 02:50:14;;;;;;;5.53;4.22;;;;;;;6.97;51.69;103769.59;1559604;91;21069;-53
2021/11/10 02:52:41;;;;;;;5.95;4.97;;;;;;;6.93;51.88;103772.88;1619680;88;21128;-55
2021/11/10 02:55:08;;;;;;;5.17;4.60;;;;;;;6.89;51.87;103770.98;1619976;88;21107;-52
2021/11/10 02:57:34;;;;;;;7.10;4.17;;;;;;;6.86;52.12;103768.30;1624786;88;21055;-52
2021/11/10 03:00:05;;;;;;;4.50;4.10;;;;;;;6.84;52.25;103768.64;1620363;88;21051;-51
2021/11/10 03:02:33;;;;;;;5.75;4.87;;;;;;;6.84;52.23;103773.38;1642331;87;21011;-53
2021/11/10 03:05:02;;;;;;;5.00;4.35;;;;;;;6.83;52.30;103771.63;1620164;88;21147;-52
2021/11/10 03:07:29;;;;;;;6.25;4.15;;;;;;;6.85;52.17;103774.27;1619643;88;21043;-52
2021/11/10 03:09:57;;;;;;;6.03;4.22;;;;;;;6.85;52.25;103788.51;1620016;88;21502;-52
2021/11/10 03:12:26;;;;;;;3.85;3.47;;;;;;;6.86;52.14;103787.70;1618738;88;21114;-55
2021/11/10 03:14:53;;;;;;;6.50;4.40;;;;;;;6.86;52.26;103787.27;1621030;88;21102;-52
2021/11/10 03:17:20;;;;;;;6.53;3.85;;;;;;;6.85;52.39;103787.22;1620961;88;21028;-50
2021/11/10 03:19:47;;;;;;;5.17;4.20;;;;;;;6.86;52.45;103786.41;1626256;88;21059;-53
2021/11/10 03:22:15;;;;;;;5.15;4.00;;;;;;;6.85;52.36;103788.11;1618019;88;21095;-52
2021/11/10 03:24:44;;;;;;;4.62;4.22;;;;;;;6.84;52.47;103791.94;1611292;88;21055;-52
2021/11/10 03:27:13;;;;;;;5.10;4.15;;;;;;;6.83;52.31;103792.34;1625039;88;21088;-54
2021/11/10 03:29:41;;;;;;;4.90;4.40;;;;;;;6.82;52.41;103793.58;1617847;88;21028;-52
2021/11/10 03:32:10;;;;;;;5.87;4.17;;;;;;;6.78;52.42;103795.13;1644819;85;21054;-51
2021/11/10 03:34:37;;;;;;;7.35;4.35;;;;;;;6.76;52.53;103795.91;1680738;85;21034;-50
2021/11/10 03:37:06;;;;;;;5.12;4.17;;;;;;;6.75;52.62;103794.12;1708408;81;21046;-52
2021/11/10 03:39:35;;;;;;;4.85;4.35;;;;;;;6.74;52.65;103797.55;1707415;83;21132;-54
2021/11/10 03:42:02;;;;;;;4.00;3.60;;;;;;;6.70;52.62;103798.24;1708483;83;21533;-50
2021/11/10 03:44:30;;;;;;;5.70;3.85;;;;;;;6.72;52.68;103790.13;1703572;83;21037;-53
2021/11/10 03:46:58;;;;;;;4.10;3.65;;;;;;;6.71;52.79;103796.11;1692269;84;21464;-55
2021/11/10 03:49:27;;;;;;;4.22;3.85;;;;;;;6.70;52.89;103793.06;1694136;84;21085;-52
2021/11/10 03:51:55;;;;;;;4.50;3.87;;;;;;;6.69;52.65;103791.28;1739359;81;21035;-52
2021/11/10 03:54:23;;;;;;;5.58;4.10;;;;;;;6.69;52.71;103808.10;1677748;84;21022;-52
2021/11/10 03:56:50;;;;;;;4.37;3.83;;;;;;;6.69;52.69;103810.69;1702122;84;21581;-56
2021/11/10 03:59:17;;;;;;;4.55;3.40;;;;;;;6.68;52.83;103808.94;1688568;84;21026;-52
2021/11/10 04:01:45;;;;;;;4.83;3.58;;;;;;;6.70;52.78;103807.30;1700474;84;21368;-53
2021/11/10 04:04:12;;;;;;;4.70;3.60;;;;;;;6.70;52.79;103802.13;1701273;84;21490;-50
2021/11/10 04:06:41;;;;;;;4.28;3.87;;;;;;;6.70;52.85;103802.98;1697095;84;21530;-52
2021/11/10 04:09:08;;;;;;;5.85;3.90;;;;;;;6.71;52.70;103801.28;1698595;84;21018;-52
2021/11/10 04:11:37;;;;;;;5.08;3.83;;;;;;;6.71;52.70;103805.17;1697651;84;21455;-52
2021/11/10 04:14:05;;;;;;;3.90;3.60;;;;;;;6.71;52.84;103812.94;1733532;81;21019;-56
2021/11/10 04:16:33;;;;;;;4.80;3.58;;;;;;;6.73;52.74;103816.47;1692178;84;21010;-56
2021/11/10 04:19:00;;;;;;;3.55;3.25;;;;;;;6.75;52.75;103820.90;1697254;84;20994;-54
2021/11/10 04:21:31;;;;;;;5.60;3.90;;;;;;;6.79;52.30;103825.78;1691906;84;21006;-52
2021/11/10 04:23:59;;;;;;;4.62;3.50;;;;;;;6.81;52.35;103829.32;1723125;82;21063;-53
2021/11/10 04:26:34;;;;;;;3.58;3.27;;;;;;;6.80;52.07;103834.04;1730583;81;21027;-53
2021/11/10 04:29:02;;;;;;;4.00;3.60;;;;;;;6.79;52.24;103836.14;1699815;84;21034;-52
2021/11/10 04:31:31;;;;;;;4.17;3.70;;;;;;;6.81;52.34;103828.03;1700743;84;21069;-54
2021/11/10 04:33:58;;;;;;;3.77;3.27;;;;;;;6.79;52.31;103836.14;1701214;84;21062;-53
2021/11/10 04:36:26;;;;;;;3.65;3.22;;;;;;;6.76;51.73;103829.12;1699855;84;21002;-53
2021/11/10 04:38:54;;;;;;;4.83;3.08;;;;;;;6.74;51.93;103835.08;1733283;81;21054;-54
2021/11/10 04:41:23;;;;;;;3.62;3.17;;;;;;;6.75;51.94;103831.65;1733737;81;21054;-52
2021/11/10 04:43:50;;;;;;;3.75;3.05;;;;;;;6.74;52.01;103831.20;1736972;81;21093;-50
2021/11/10 04:48:43;;;;;;;3.35;2.70;;;;;;;6.80;51.88;103832.75;1748810;80;20998;-53
2021/11/10 04:51:11;;;;;;;3.25;2.67;;;;;;;6.80;51.36;103840.51;1746960;80;21039;-50
2021/11/10 04:53:42;;;;;;;3.30;3.00;;;;;;;6.80;51.39;103836.63;1752208;80;21010;-54
2021/11/10 04:56:09;;;;;;;4.43;2.80;;;;;;;6.81;51.65;103837.09;1709965;83;21053;-53
2021/11/10 04:58:36;;;;;;;3.67;2.80;;;;;;;6.81;51.40;103845.73;1723656;83;21469;-51
2021/11/10 05:01:03;;;;;;;3.10;2.80;;;;;;;6.82;51.45;103845.34;1712361;83;21061;-51
2021/11/10 05:03:29;;;;;;;2.90;2.70;;;;;;;6.79;51.12;103841.31;1713066;83;20997;-55
2021/11/10 05:05:57;;;;;;;3.22;2.92;;;;;;;6.75;51.06;103839.41;1713963;83;21466;-50
2021/11/10 05:08:26;;;;;;;3.55;2.80;;;;;;;6.73;50.97;103844.53;1702632;83;21009;-52
2021/11/10 05:10:53;;;;;;;3.12;2.83;;;;;;;6.74;50.93;103851.89;1712155;83;21085;-50
2021/11/10 05:13:20;;;;;;;3.22;2.50;;;;;;;6.73;50.90;103857.88;1714032;83;21061;-52
2021/11/10 05:15:49;;;;;;;2.90;2.40;;;;;;;6.74;51.11;103864.84;1709682;83;21490;-56
2021/11/10 05:18:17;;;;;;;2.67;2.42;;;;;;;6.75;50.73;103873.06;1701186;83;21096;-55
2021/11/10 05:20:44;;;;;;;2.62;2.42;;;;;;;6.74;50.56;103867.42;1713621;83;21017;-50
2021/11/10 05:23:11;;;;;;;3.45;2.52;;;;;;;6.73;50.63;103864.34;1712349;83;20989;-50
2021/11/10 05:25:38;;;;;;;2.80;2.50;;;;;;;6.74;50.89;103879.06;1711006;83;21084;-55
2021/11/10 05:28:04;;;;;;;3.80;2.40;;;;;;;6.75;50.86;103880.82;1708283;83;21017;-53
2021/11/10 05:30:31;;;;;;;3.00;2.80;;;;;;;6.76;50.98;103880.02;1711044;83;20989;-52
2021/11/10 05:32:57;;;;;;;2.58;2.37;;;;;;;6.80;50.84;103883.21;1711181;83;21033;-52
2021/11/10 05:35:24;;;;;;;3.33;2.52;;;;;;;6.81;50.77;103900.09;1711688;83;21030;-50
2021/11/10 05:37:50;;;;;;;3.15;2.85;;;;;;;6.82;50.76;103894.52;1714122;83;21036;-53
2021/11/10 05:40:17;;;;;;;3.20;2.60;;;;;;;6.81;50.90;103896.61;1713784;83;21018;-50
2021/11/10 05:42:44;;;;;;;2.95;2.60;;;;;;;6.84;50.95;103896.77;1711466;83;21112;-50
2021/11/10 05:45:10;;;;;;;3.02;2.77;;;;;;;6.85;50.89;103895.92;1702595;83;21057;-50
2021/11/10 05:47:37;;;;;;;5.05;2.87;;;;;;;6.85;50.89;103895.92;1694238;84;21538;-51
2021/11/10 05:50:05;;;;;;;2.85;2.65;;;;;;;6.87;50.98;103900.76;1694928;84;21573;-55
2021/11/10 05:52:33;;;;;;;3.10;2.80;;;;;;;6.91;51.06;103906.55;1701147;84;20998;-53
2021/11/10 05:54:59;;;;;;;4.85;3.08;;;;;;;6.92;51.05;103913.50;1700583;84;21014;-50
2021/11/10 05:57:26;;;;;;;4.03;2.77;;;;;;;6.93;51.11;103912.67;1697046;84;21053;-51
2021/11/10 05:59:53;;;;;;;3.25;2.95;;;;;;;6.95;51.02;103916.20;1695741;84;20994;-51
2021/11/10 06:02:20;;;;;;;3.00;2.65;;;;;;;6.97;50.61;103906.80;1698168;84;20967;-52
2021/11/10 06:04:46;;;;;;;2.75;2.50;;;;;;;6.98;50.52;103906.00;1698201;84;20970;-52
2021/11/10 06:07:14;;;;;;;2.60;2.40;;;;;;;6.97;50.58;103911.98;1694453;84;21097;-51
2021/11/10 06:09:42;;;;;;;2.80;2.55;;;;;;;6.95;50.38;103915.80;1701139;84;21015;-50
2021/11/10 06:12:09;;;;;;;2.87;2.62;;;;;;;6.96;50.73;103918.89;1700826;84;21003;-54
2021/11/10 06:14:36;;;;;;;3.20;2.87;;;;;;;6.97;50.84;103927.52;1699692;84;21010;-52
2021/11/10 06:17:04;;;;;;;2.65;2.45;;;;;;;7.00;50.65;103935.42;1694317;84;21515;-52
2021/11/10 06:19:32;;;;;;;3.83;2.87;;;;;;;7.04;50.53;103942.51;1691483;83;21038;-53
2021/11/10 06:21:59;;;;;;;3.45;2.70;;;;;;;7.07;50.32;103937.44;1697915;84;21014;-50
2021/11/10 06:24:27;;;;;;;2.85;2.45;;;;;;;7.11;50.22;103944.55;1697665;84;21003;-52
2021/11/10 06:26:54;;;;;;;4.80;2.85;;;;;;;7.10;49.99;103951.44;1693619;84;21053;-52
2021/11/10 06:29:22;;;;;;;3.45;2.52;;;;;;;7.12;49.82;103946.31;1698145;84;21069;-52
2021/11/10 06:31:51;;;;;;;2.80;2.45;;;;;;;7.13;49.99;103940.33;1739436;81;21022;-52
2021/11/10 06:34:18;;;;;;;2.55;2.30;;;;;;;7.17;49.90;103945.67;1714787;83;21108;-53
2021/11/10 06:36:44;;;;;;;3.75;2.80;;;;;;;7.21;49.82;103945.42;1715936;82;21021;-52
2021/11/10 06:39:10;;;;;;;3.45;3.15;;;;;;;7.23;49.53;103939.45;1700255;83;21038;-52
2021/11/10 06:41:37;;;;;;;3.55;2.27;;;;;;;7.27;49.71;103939.20;1712750;82;21116;-50
2021/11/10 06:44:05;;;;;;;3.22;2.92;;;;;;;7.31;49.44;103936.81;1704552;81;21091;-50
2021/11/10 06:46:31;;;;;;;3.40;3.00;;;;;;;7.36;48.95;103939.16;1727802;82;20991;-52
2021/11/10 06:48:58;;;;;;;4.00;2.60;;;;;;;7.41;48.70;103941.95;1736569;81;21031;-53
2021/11/10 06:51:24;;;;;;;7.17;3.30;;;;;;;7.44;48.81;103942.06;1727688;81;21010;-53
2021/11/10 06:53:51;;;;;;;3.58;2.83;;;;;;;7.46;48.93;103939.13;1724641;82;21063;-50
2021/11/10 06:56:18;;;;;;;3.37;2.60;;;;;;;7.54;48.73;103945.54;1715576;81;20991;-56
2021/11/10 06:58:44;;;;;;;3.02;2.55;;;;;;;7.59;48.56;103951.77;1728449;81;21001;-53
2021/11/10 07:01:11;;;;;;;4.28;3.55;;;;;;;7.63;48.37;103942.01;1725797;81;21550;-53
2021/11/10 07:03:38;;;;;;;4.55;2.55;;;;;;;7.64;48.34;103947.68;1726993;82;21011;-51
2021/11/10 07:06:06;;;;;;;4.08;3.67;;;;;;;7.66;48.04;103965.87;1722484;81;21100;-51
2021/11/10 07:08:32;;;;;;;3.20;2.80;;;;;;;7.65;47.85;103964.98;1723840;81;21035;-50
2021/11/10 07:10:59;;;;;;;2.80;2.47;;;;;;;7.65;47.67;103974.45;1725696;81;20982;-50
2021/11/10 07:13:26;;;;;;;3.42;2.50;;;;;;;7.65;47.67;103968.87;1722304;81;21054;-50
2021/11/10 07:15:54;;;;;;;3.27;2.67;;;;;;;7.66;47.69;103978.83;1725532;81;21229;-53
2021/11/10 07:18:22;;;;;;;3.58;2.90;;;;;;;7.66;47.70;103977.14;1726847;82;21535;-51
2021/11/10 07:20:48;;;;;;;3.22;2.65;;;;;;;7.66;47.83;103974.55;1715776;81;20975;-51
2021/11/10 07:23:15;;;;;;;3.37;3.08;;;;;;;7.68;48.00;103977.19;1727751;81;21011;-51
2021/11/10 07:25:41;;;;;;;3.75;3.35;;;;;;;7.71;48.21;103985.97;1739943;82;21006;-53
2021/11/10 07:28:08;;;;;;;4.55;2.85;;;;;;;7.74;48.12;103991.30;1703310;83;21025;-56
2021/11/10 07:30:37;;;;;;;5.45;2.75;;;;;;;7.74;48.34;103990.00;1705811;83;21042;-52
2021/11/10 07:33:03;;;;;;;3.60;2.62;;;;;;;7.77;48.42;103986.22;1705899;83;21006;-52
2021/11/10 07:35:30;;;;;;;3.87;2.77;;;;;;;7.84;48.44;103985.66;1705830;83;20974;-50
2021/11/10 07:37:56;;;;;;;3.87;3.05;;;;;;;7.92;48.10;103989.44;1715078;82;21557;-53
2021/11/10 07:40:24;;;;;;;2.77;2.58;;;;;;;7.98;48.14;103981.02;1744426;81;21038;-50
2021/11/10 07:42:52;;;;;;;3.25;2.50;;;;;;;7.99;47.71;103978.51;1743287;81;21074;-50
2021/11/10 07:45:21;;;;;;;6.75;2.95;;;;;;;8.02;47.38;103979.91;1743834;81;21081;-53
2021/11/10 07:47:47;;;;;;;3.35;2.95;;;;;;;8.04;47.60;103986.04;1749808;80;21046;-53
2021/11/10 07:50:18;;;;;;;3.45;3.08;;;;;;;8.06;47.65;103981.80;1736600;80;21538;-53
2021/11/10 07:52:46;;;;;;;5.00;2.58;;;;;;;8.11;47.52;103985.47;1699907;84;21092;-52
2021/11/10 07:55:13;;;;;;;3.42;2.65;;;;;;;8.13;47.61;103974.74;1700859;84;21462;-52
2021/11/10 07:57:39;;;;;;;3.58;2.77;;;;;;;8.14;47.31;103974.30;1696993;84;21028;-50
2021/11/10 08:00:12;;;;;;;3.37;2.65;;;;;;;8.17;47.28;103971.84;1697983;84;20998;-52
2021/11/10 08:02:43;;;;;;;2.85;2.55;;;;;;;8.16;47.07;103964.47;1698141;84;21054;-50
2021/11/10 08:05:11;;;;;;;2.90;2.70;;;;;;;8.17;47.34;103958.87;1687361;84;20980;-50
2021/11/10 08:07:37;;;;;;;4.28;2.35;;;;;;;8.19;47.18;103959.41;1701105;84;21013;-50
2021/11/10 08:10:08;;;;;;;4.17;2.80;;;;;;;8.29;47.34;103962.37;1699216;84;21052;-51
2021/11/10 08:12:36;;;;;;;2.35;2.15;;;;;;;8.37;47.31;103971.34;1697780;84;20981;-54
2021/11/10 08:15:05;;;;;;;3.15;2.40;;;;;;;8.46;47.16;103974.30;1698335;84;21017;-55
2021/11/10 08:17:35;;;;;;;4.72;2.77;;;;;;;8.50;46.83;103978.77;1697842;84;21426;-50
2021/11/10 08:20:11;;;;;;;4.08;2.55;;;;;;;8.54;46.79;103983.25;1691957;84;21096;-50
2021/11/10 08:22:40;;;;;;;3.10;2.72;;;;;;;8.57;46.97;103981.64;1651492;86;21051;-52
2021/11/10 08:25:08;;;;;;;2.60;2.40;;;;;;;8.63;46.97;103979.31;1593018;89;21086;-53
2021/11/10 08:27:35;;;;;;;2.62;2.42;;;;;;;8.68;46.41;103976.86;1588579;89;21601;-50
2021/11/10 08:30:09;;;;;;;3.08;2.75;;;;;;;8.69;46.29;103973.45;1598547;89;21051;-53
2021/11/10 08:32:36;;;;;;;4.25;2.85;;;;;;;8.72;46.29;103972.25;1599248;89;21045;-50
2021/11/10 08:35:03;;;;;;;3.10;2.75;;;;;;;8.74;46.09;103975.78;1595729;89;21048;-51
2021/11/10 08:37:31;;;;;;;3.25;2.77;;;;;;;8.75;46.38;103968.48;1592132;89;21568;-55
2021/11/10 08:39:58;;;;;;;5.47;3.20;;;;;;;8.80;46.54;103960.42;1596600;89;21048;-52
2021/11/10 08:42:31;;;;;;;4.75;3.27;;;;;;;8.83;46.92;103951.47;1597074;89;21171;-53
2021/11/10 08:44:53;;;;;;;3.40;3.10;;;;;;;8.88;46.97;103946.04;1597391;89;21108;-51
2021/11/10 08:47:22;;;;;;;5.35;3.25;;;;;;;8.90;46.81;103940.48;1607081;89;21559;-52
2021/11/10 08:49:49;;;;;;;4.08;3.52;;;;;;;8.93;46.78;103932.78;1610164;88;21082;-52
2021/11/10 08:52:16;;;;;;;9.28;3.58;;;;;;;8.94;46.67;103935.42;1618527;87;21054;-52
2021/11/10 08:54:42;;;;;;;5.72;3.25;;;;;;;8.98;46.67;103936.44;1618287;87;21097;-54
2021/11/10 08:57:09;;;;;;;7.10;4.78;;;;;;;9.01;46.79;103938.72;1617297;88;21074;-53
2021/11/10 08:59:35;;;;;;;4.10;3.20;;;;;;;9.05;46.74;103953.98;1613482;87;21138;-53
2021/11/10 09:02:03;;;;;;;4.12;3.72;;;;;;;9.08;47.03;103961.91;1619243;87;21070;-54
2021/11/10 09:04:30;;;;;;;5.80;4.42;;;;;;;9.08;46.45;103964.91;1619825;87;21073;-54
2021/11/10 09:06:56;;;;;;;5.58;3.85;;;;;;;9.04;46.77;103962.63;1618039;88;21562;-51
2021/11/10 09:09:22;;;;;;;4.35;3.95;;;;;;;8.99;47.03;103966.76;1612222;87;21110;-57
2021/11/10 09:11:50;;;;;;;5.35;3.92;;;;;;;8.93;46.90;103954.86;1619210;87;21110;-54
2021/11/10 09:14:19;;;;;;;3.52;3.22;;;;;;;8.90;47.09;103958.66;1610037;87;21129;-58
2021/11/10 09:16:47;;;;;;;3.95;3.60;;;;;;;8.88;46.82;103952.53;1621557;87;21114;-53
2021/11/10 09:19:14;;;;;;;4.17;3.55;;;;;;;8.85;47.21;103956.30;1620735;87;21105;-53
2021/11/10 09:21:42;;;;;;;4.45;3.60;;;;;;;8.86;47.50;103961.98;1619245;87;21066;-51
2021/11/10 09:24:09;;;;;;;5.00;3.65;;;;;;;8.90;47.26;103958.66;1620487;87;21197;-54
2021/11/10 09:26:37;;;;;;;4.40;3.85;;;;;;;8.91;47.15;103957.41;1651439;86;21042;-53
2021/11/10 09:29:06;;;;;;;4.87;4.10;;;;;;;8.95;47.20;103956.69;1652340;85;21015;-54
2021/11/10 09:31:38;;;;;;;8.38;3.98;;;;;;;8.98;46.93;103944.23;1664563;85;21022;-55
2021/11/10 09:34:08;;;;;;;5.12;3.62;;;;;;;9.00;46.95;103948.63;1659219;85;21090;-57
2021/11/10 09:36:36;;;;;;;3.98;3.52;;;;;;;9.03;46.85;103947.86;1658546;84;21034;-51
2021/11/10 09:39:03;;;;;;;4.58;4.12;;;;;;;9.06;46.99;103949.28;1658283;85;21085;-55
2021/11/10 09:41:29;;;;;;;8.25;4.03;;;;;;;9.11;46.72;103950.74;1658115;85;21118;-55
2021/11/10 09:43:58;;;;;;;4.30;3.72;;;;;;;9.12;46.68;103946.89;1658447;85;21602;-54
2021/11/10 09:46:25;;;;;;;4.25;3.85;;;;;;;9.16;46.70;103942.27;1693699;82;21016;-51
2021/11/10 09:48:53;;;;;;;3.75;3.33;;;;;;;9.19;46.78;103933.70;1646805;85;21058;-55
2021/11/10 09:51:19;;;;;;;4.75;3.70;;;;;;;9.21;46.69;103934.20;1701196;82;20984;-56
2021/11/10 09:53:46;;;;;;;6.35;3.50;;;;;;;9.25;46.47;103937.40;1698753;82;20992;-51
2021/11/10 09:56:12;;;;;;;3.98;3.50;;;;;;;9.29;46.56;103934.08;1686681;82;21055;-53
2021/11/10 09:58:40;;;;;;;3.90;3.50;;;;;;;9.35;46.87;103925.59;1700995;84;21019;-53
2021/11/10 10:01:09;;;;;;;4.12;3.72;;;;;;;9.40;46.47;103915.80;1700907;82;21067;-51
2021/11/10 10:03:38;;;;;;;5.78;4.12;;;;;;;9.41;46.23;103903.29;1700562;82;21550;-52
2021/11/10 10:06:05;;;;;;;5.17;4.05;;;;;;;9.41;46.25;103892.89;1698334;82;20980;-53
2021/11/10 10:08:32;;;;;;;5.20;4.47;;;;;;;9.46;46.30;103893.91;1689444;82;21043;-54
2021/11/10 10:10:59;;;;;;;3.75;3.45;;;;;;;9.52;46.25;103904.95;1699245;82;21720;-52
2021/11/10 10:13:26;;;;;;;5.37;3.87;;;;;;;9.58;46.17;103908.59;1700205;84;21015;-58
2021/11/10 10:15:52;;;;;;;4.90;3.92;;;;;;;9.65;46.24;103910.58;1695836;84;21098;-53
2021/11/10 10:18:25;;;;;;;4.30;3.90;;;;;;;9.71;46.04;103902.97;1704697;82;21083;-52
2021/11/10 10:21:04;;;;;;;3.83;3.42;;;;;;;9.73;45.66;103897.39;1655092;86;21058;-51
2021/11/10 10:23:34;;;;;;;5.08;4.58;;;;;;;9.75;45.68;103898.33;1650608;86;21093;-52
2021/11/10 10:26:13;;;;;;;4.58;4.17;;;;;;;9.76;45.95;103902.70;1652819;86;21069;-54
2021/11/10 10:28:49;;;;;;;4.20;3.80;;;;;;;9.81;45.99;103906.31;1653343;86;21050;-51
2021/11/10 10:31:23;;;;;;;5.00;4.10;;;;;;;9.88;45.77;103902.20;1653470;86;21046;-52
2021/11/10 10:33:55;;;;;;;4.35;3.95;;;;;;;9.95;45.52;103904.16;1653741;86;21086;-52
2021/11/10 10:36:25;;;;;;;4.08;3.75;;;;;;;10.00;45.41;103897.77;1596470;89;21542;-55
2021/11/10 10:39:05;;;;;;;4.92;4.20;;;;;;;10.06;45.23;103891.45;1530494;93;21608;-53
2021/11/10 10:41:35;;;;;;;52.98;32.53;;;;;;;10.12;45.09;103894.30;1529276;93;21085;-50
2021/11/10 10:44:09;;;;;;;19.23;13.48;;;;;;;10.20;45.37;103895.41;1530815;93;21112;-50
2021/11/10 10:46:39;;;;;;;9.95;7.37;;;;;;;10.24;44.63;103898.13;1523956;93;21153;-53
2021/11/10 10:49:19;;;;;;;6.87;5.83;;;;;;;10.29;44.49;103893.05;1510403;94;21113;-52
2021/11/10 10:51:51;;;;;;;6.15;4.97;;;;;;;10.31;44.50;103896.17;1445046;98;21129;-50
2021/11/10 10:54:19;;;;;;;5.15;4.53;;;;;;;10.31;44.51;103885.77;1447186;98;21153;-52
2021/11/10 10:56:57;;;;;;;8.15;5.75;;;;;;;10.31;44.75;103879.66;1454123;98;21174;-53
2021/11/10 10:59:24;;;;;;;6.12;4.75;;;;;;;10.31;45.04;103875.35;1452713;98;21566;-52
2021/11/10 11:02:04;;;;;;;7.95;4.15;;;;;;;10.31;44.80;103867.95;1455543;98;21131;-54
2021/11/10 11:04:32;;;;;;;6.53;4.15;;;;;;;10.31;44.98;103875.77;1454967;98;21086;-51
2021/11/10 11:07:07;;;;;;;8.25;5.45;;;;;;;10.34;44.94;103870.66;1452577;98;21598;-55
2021/11/10 11:09:50;;;;;;;5.22;4.72;;;;;;;10.33;45.02;103871.48;1459555;98;21153;-52
2021/11/10 11:17:55;;;;;;;5.92;3.98;;;;;;;10.38;45.07;103855.59;1449121;98;21165;-52
2021/11/10 11:20:31;;;;;;;5.28;3.95;;;;;;;10.45;44.59;103853.60;1428334;99;21078;-53
2021/11/10 11:22:59;;;;;;;12.28;8.38;;;;;;;10.51;44.38;103855.07;1451180;98;21159;-53
2021/11/10 11:25:30;;;;;;;10.30;8.10;;;;;;;10.59;44.22;103852.28;1452603;98;21150;-54
2021/11/10 11:28:03;;;;;;;;;;;;;;;10.65;43.65;103847.24;1455304;98;21094;-51
2021/11/10 11:30:53;;;;;;;8.98;6.20;;;;;;;10.70;43.64;103835.20;1452690;98;20409;-53
2021/11/10 11:33:21;;;;;;;6.42;5.00;;;;;;;10.73;43.56;103853.53;1469960;97;21599;-55
2021/11/10 11:35:57;;;;;;;32.58;22.32;;;;;;;10.80;43.47;103845.02;1490702;95;21044;-57
2021/11/10 11:38:28;;;;;;;28.95;19.52;;;;;;;10.86;43.02;103842.58;1546207;92;21151;-54
2021/11/10 11:40:58;;;;;;;21.20;13.90;;;;;;;10.91;42.65;103835.77;1556025;92;21518;-53
2021/11/10 11:43:27;;;;;;;18.75;11.10;;;;;;;10.94;42.69;103841.05;1555982;92;21100;-51